Time;durP1;ratioP1;P1;durP2;ratioP2;P2;SDS_P1;SDS_P2;PMS_P1;PMS_P2;Temp;Humidity;BMP_temperature;BMP_pressure;BME280_temperature;BME280_humidity;BME280_pressure;Samples;Min_cycle;Max_cycle;Signal;HPM_P1;HPM_P2
2021/12/02 00:00:41;;;;;;;8.35;1.85;;;;;;;3.39;85.89;99876.28;4992373;28;20037;-64
2021/12/02 00:03:08;;;;;;;5.43;1.27;;;;;;;3.44;85.88;99883.66;4996495;28;20037;-64
2021/12/02 00:05:34;;;;;;;4.50;1.20;;;;;;;3.42;86.00;99875.25;4997616;28;20100;-64
2021/12/02 00:07:59;;;;;;;5.82;1.10;;;;;;;3.41;86.55;99889.81;4998021;28;20474;-64
2021/12/02 00:10:29;;;;;;;5.13;1.42;;;;;;;3.35;86.52;99886.84;4986675;28;20122;-64
2021/12/02 00:12:56;;;;;;;5.60;1.30;;;;;;;3.38;86.72;99884.06;4992114;28;20034;-64
2021/12/02 00:15:25;;;;;;;6.75;1.40;;;;;;;3.37;86.77;99882.44;4997974;28;20069;-64
2021/12/02 00:18:18;;;;;;;;;;;;;;;3.46;86.65;99885.22;4991728;28;20567;-64
2021/12/02 00:23:28;;;;;;;6.32;1.27;;;;;;;3.38;87.32;99894.31;4995452;28;20089;-68
2021/12/02 00:25:57;;;;;;;5.95;1.35;;;;;;;3.37;87.40;99895.25;4991111;28;20447;-63
2021/12/02 01:22:38;;;;;;;6.40;1.40;;;;;;;3.20;88.01;99907.41;5010984;28;20566;-64
2021/12/02 01:25:05;;;;;;;7.83;1.60;;;;;;;3.26;88.53;99911.31;4996824;28;20563;-64
2021/12/02 01:27:34;;;;;;;8.68;1.60;;;;;;;3.27;88.37;99907.03;4997823;28;20076;-65
2021/12/02 01:30:00;;;;;;;;;;;;;;;3.37;88.02;99908.06;4995823;28;20389;-64
2021/12/02 01:32:26;;;;;;;7.65;1.73;;;;;;;3.27;88.43;99919.84;5006775;28;19913;-64
2021/12/02 01:34:52;;;;;;;9.23;1.50;;;;;;;3.29;88.56;99935.94;4999046;28;20034;-65
2021/12/02 01:37:18;;;;;;;8.63;1.50;;;;;;;3.29;88.33;99935.94;4990158;28;20496;-64
2021/12/02 01:39:43;;;;;;;6.55;1.50;;;;;;;3.29;89.42;99935.94;5004359;28;20065;-65
2021/12/02 01:42:23;;;;;;;8.05;1.35;;;;;;;3.26;88.72;99920.75;4995223;28;20034;-65
2021/12/02 01:44:51;;;;;;;9.40;1.52;;;;;;;3.22;88.96;99919.34;4999932;28;20054;-64
2021/12/02 01:47:22;;;;;;;7.00;1.30;;;;;;;3.15;88.54;99927.44;4999756;28;20103;-64
2021/12/02 01:49:53;;;;;;;6.03;1.02;;;;;;;3.14;88.13;99902.69;5012027;28;20025;-63
2021/12/02 01:52:25;;;;;;;6.45;0.93;;;;;;;3.13;88.41;99905.38;4993291;28;20022;-64
2021/12/02 01:54:53;;;;;;;5.20;1.10;;;;;;;3.12;88.58;99908.88;4995240;28;20030;-64
2021/12/02 01:57:32;;;;;;;5.22;1.10;;;;;;;3.12;88.63;99909.69;5002820;28;20470;-64
2021/12/02 02:00:08;;;;;;;3.97;0.95;;;;;;;3.05;89.21;99898.19;4999650;28;20034;-65
2021/12/02 02:02:36;;;;;;;4.75;1.23;;;;;;;3.06;88.94;99902.41;5009929;28;20480;-63
2021/12/02 02:05:06;;;;;;;6.03;1.15;;;;;;;3.03;88.66;99910.25;5006677;28;20478;-64
2021/12/02 02:07:33;;;;;;;5.07;1.20;;;;;;;2.99;89.04;99903.72;4999207;28;20092;-73
2021/12/02 02:09:59;;;;;;;5.10;1.17;;;;;;;2.98;89.20;99901.25;4993389;28;20034;-65
2021/12/02 02:12:25;;;;;;;6.15;1.40;;;;;;;3.01;89.01;99911.31;4991944;28;20036;-63
2021/12/02 02:14:51;;;;;;;5.38;1.38;;;;;;;2.98;89.42;99909.75;4980827;28;20029;-64
2021/12/02 02:17:24;;;;;;;6.90;1.45;;;;;;;2.97;89.61;99909.84;4992456;28;20030;-64
2021/12/02 02:19:50;;;;;;;6.88;1.60;;;;;;;2.95;89.50;99907.41;4982794;28;20025;-64
2021/12/02 02:22:20;;;;;;;5.35;1.70;;;;;;;2.99;89.04;99905.47;4998333;28;20778;-64
2021/12/02 02:24:46;;;;;;;6.07;1.45;;;;;;;2.95;89.71;99917.63;4983538;28;20462;-64
2021/12/02 02:27:11;;;;;;;6.25;1.38;;;;;;;2.93;89.37;99914.38;4994662;28;20112;-63
2021/12/02 02:29:36;;;;;;;6.40;1.40;;;;;;;2.94;89.48;99900.63;4990266;28;20023;-64
2021/12/02 02:32:02;;;;;;;10.05;1.90;;;;;;;2.95;89.56;99916.81;4992619;28;20030;-64
2021/12/02 02:34:27;;;;;;;4.97;1.38;;;;;;;2.94;89.52;99895.50;4997084;28;20025;-64
2021/12/02 02:36:59;;;;;;;5.47;1.42;;;;;;;2.97;89.61;99907.28;5010045;28;20425;-63
2021/12/02 02:39:27;;;;;;;6.15;1.70;;;;;;;2.95;89.22;99902.28;4988340;28;20073;-64
2021/12/02 02:42:00;;;;;;;6.18;1.60;;;;;;;2.92;89.08;99903.31;5000683;28;20030;-64
2021/12/02 02:44:28;;;;;;;6.22;1.52;;;;;;;2.89;89.14;99902.66;5000745;28;20030;-64
2021/12/02 02:46:54;;;;;;;8.93;1.67;;;;;;;2.92;89.38;99902.47;4992585;28;20038;-67
2021/12/02 02:49:19;;;;;;;7.35;1.60;;;;;;;2.84;89.41;99889.34;4992283;28;20277;-63
2021/12/02 02:51:45;;;;;;;6.35;1.55;;;;;;;2.87;89.59;99899.41;4998299;28;20038;-64
2021/12/02 02:54:13;;;;;;;5.85;1.50;;;;;;;2.83;89.52;99908.19;4993650;28;20034;-64
2021/12/02 02:56:53;;;;;;;9.25;1.92;;;;;;;2.80;88.94;99918.59;4991959;28;20360;-64
2021/12/02 02:59:37;;;;;;;6.57;1.65;;;;;;;2.76;89.48;99918.00;4981510;28;20405;-64
2021/12/02 03:07:38;;;;;;;7.40;1.90;;;;;;;2.70;88.85;99927.81;4987011;28;20387;-64
2021/12/02 03:10:13;;;;;;;6.72;1.58;;;;;;;2.65;88.88;99923.81;5009509;28;20525;-64
2021/12/02 03:12:42;;;;;;;5.40;1.50;;;;;;;2.66;88.95;99933.13;4992993;28;20390;-63
2021/12/02 03:17:33;;;;;;;7.68;1.50;;;;;;;2.66;88.87;99933.13;5006220;28;20589;-64
2021/12/02 03:20:00;;;;;;;7.03;1.70;;;;;;;2.65;89.42;99930.66;4998613;28;20030;-64
2021/12/02 03:22:26;;;;;;;6.45;1.45;;;;;;;2.60;89.36;99922.44;5010861;28;20092;-64
2021/12/02 03:24:51;;;;;;;5.57;1.30;;;;;;;2.64;89.44;99929.84;5011185;28;20449;-65
2021/12/02 03:27:17;;;;;;;7.47;1.63;;;;;;;2.61;89.29;99919.78;5003522;28;20061;-63
2021/12/02 03:29:42;;;;;;;4.90;1.20;;;;;;;2.62;88.92;99929.09;4998753;28;20053;-64
2021/12/02 03:32:08;;;;;;;9.32;1.40;;;;;;;2.61;89.42;99935.16;4991489;28;20058;-64
2021/12/02 03:34:36;;;;;;;8.23;1.42;;;;;;;2.58;89.17;99929.38;4997378;28;20121;-64
2021/12/02 03:37:02;;;;;;;5.50;1.23;;;;;;;2.60;89.11;99933.50;5003294;28;20538;-64
2021/12/02 03:39:28;;;;;;;6.82;1.45;;;;;;;2.56;89.06;99937.16;5007651;28;20116;-64
2021/12/02 03:41:54;;;;;;;9.32;1.30;;;;;;;2.52;89.21;99940.00;4993652;28;20109;-64
2021/12/02 03:44:20;;;;;;;6.10;1.35;;;;;;;2.55;89.26;99944.94;4995804;28;20030;-64
2021/12/02 03:46:45;;;;;;;8.20;1.25;;;;;;;2.51;89.23;99944.31;4995313;28;20045;-64
2021/12/02 03:49:11;;;;;;;7.53;1.15;;;;;;;2.50;89.23;99942.66;4973700;28;20029;-63
2021/12/02 03:51:37;;;;;;;7.72;1.67;;;;;;;2.52;89.06;99948.50;4990230;28;20034;-64
2021/12/02 03:54:04;;;;;;;6.95;1.30;;;;;;;2.49;89.19;99941.03;5000377;28;20080;-64
2021/12/02 03:56:30;;;;;;;7.57;1.42;;;;;;;2.52;89.08;99935.72;4993899;28;20438;-63
2021/12/02 03:58:55;;;;;;;7.60;1.20;;;;;;;2.47;89.73;99937.75;5001151;28;20030;-64
2021/12/02 04:01:21;;;;;;;8.05;1.35;;;;;;;2.52;89.55;99930.59;5011023;28;20033;-64
2021/12/02 04:03:48;;;;;;;5.53;1.30;;;;;;;2.47;89.23;99927.53;4993254;28;20072;-65
2021/12/02 04:06:14;;;;;;;7.93;1.20;;;;;;;2.48;89.57;99924.03;5004837;28;20084;-64
2021/12/02 04:08:45;;;;;;;6.78;1.45;;;;;;;2.47;89.29;99926.69;4992821;28;20072;-65
2021/12/02 04:11:30;;;;;;;4.93;1.08;;;;;;;2.49;89.38;99924.84;4993425;28;20066;-64
2021/12/02 04:16:39;;;;;;;6.45;1.40;;;;;;;2.44;89.22;99932.81;4992341;28;20030;-64
2021/12/02 04:19:08;;;;;;;5.90;1.30;;;;;;;2.47;89.23;99939.50;4990961;28;20355;-64
2021/12/02 04:21:34;;;;;;;7.35;1.02;;;;;;;2.46;89.32;99935.28;4990841;28;20047;-64
2021/12/02 04:24:01;;;;;;;4.88;1.20;;;;;;;2.44;89.29;99948.16;5000885;28;20044;-64
2021/12/02 04:26:26;;;;;;;5.50;1.20;;;;;;;2.43;89.27;99936.28;4999686;28;20109;-64
2021/12/02 04:28:52;;;;;;;8.20;1.20;;;;;;;2.42;88.83;99944.06;5004751;28;20101;-65
2021/12/02 04:31:17;;;;;;;7.72;1.33;;;;;;;2.43;89.34;99946.53;4991036;28;20110;-65
2021/12/02 04:33:43;;;;;;;7.07;1.10;;;;;;;2.41;88.96;99958.63;4995888;28;20450;-64
2021/12/02 04:36:08;;;;;;;6.13;1.30;;;;;;;2.38;88.53;99966.47;5001135;28;20064;-64
2021/12/02 04:38:34;;;;;;;4.50;1.10;;;;;;;2.41;88.61;99976.53;5005632;28;20534;-65
2021/12/02 04:41:00;;;;;;;5.15;1.05;;;;;;;2.40;88.73;99977.41;4997812;28;20600;-64
2021/12/02 04:43:25;;;;;;;4.47;0.98;;;;;;;2.35;88.69;99971.75;5002396;28;20030;-64
2021/12/02 04:45:52;;;;;;;5.55;0.93;;;;;;;2.32;88.10;99974.53;5003527;28;20030;-64
2021/12/02 04:48:18;;;;;;;5.32;1.10;;;;;;;2.29;88.37;99969.56;5000509;28;20029;-64
2021/12/02 04:50:43;;;;;;;6.00;1.20;;;;;;;2.30;88.53;99963.56;4993992;28;20026;-64
2021/12/02 04:53:09;;;;;;;4.15;1.35;;;;;;;2.29;88.42;99967.00;4995920;28;20022;-63
2021/12/02 04:55:35;;;;;;;6.35;1.25;;;;;;;2.21;88.89;99964.13;5010556;28;20025;-64
2021/12/02 04:58:00;;;;;;;5.00;1.00;;;;;;;2.25;88.65;99970.69;4996787;28;20030;-64
2021/12/02 05:00:26;;;;;;;4.60;1.00;;;;;;;2.25;89.09;99980.94;5001503;28;20049;-64
2021/12/02 05:02:51;;;;;;;5.13;1.23;;;;;;;2.25;88.99;99983.50;4993376;28;20096;-63
2021/12/02 05:05:17;;;;;;;4.28;1.02;;;;;;;2.23;88.80;99981.00;4991367;28;20457;-64
2021/12/02 05:07:42;;;;;;;4.18;1.15;;;;;;;2.23;89.29;99986.13;4997983;28;20477;-64
2021/12/02 05:10:08;;;;;;;5.43;1.17;;;;;;;2.23;88.87;99995.53;5004327;28;20050;-65
2021/12/02 05:12:34;;;;;;;6.03;1.10;;;;;;;2.15;89.19;99992.63;4993857;28;20101;-64
2021/12/02 05:15:01;;;;;;;3.67;1.00;;;;;;;2.15;88.84;99996.00;5000762;28;20030;-64
2021/12/02 05:17:27;;;;;;;4.15;1.35;;;;;;;2.03;88.69;99995.00;5008043;28;20037;-63
2021/12/02 05:19:52;;;;;;;4.40;1.40;;;;;;;2.06;88.44;99989.69;4996449;28;20034;-64
2021/12/02 05:22:18;;;;;;;4.80;1.35;;;;;;;2.00;88.96;99995.16;5011030;28;20478;-64
2021/12/02 05:24:44;;;;;;;3.72;1.17;;;;;;;1.98;88.66;99993.63;4992708;28;20029;-64
2021/12/02 05:27:11;;;;;;;4.88;1.38;;;;;;;2.02;89.38;99983.13;5012548;28;20026;-64
2021/12/02 05:29:37;;;;;;;4.50;1.13;;;;;;;1.92;89.33;99976.91;5010726;28;20026;-63
2021/12/02 05:32:02;;;;;;;3.53;1.02;;;;;;;1.87;89.33;99989.13;5006988;28;20077;-64
2021/12/02 05:34:28;;;;;;;2.72;1.00;;;;;;;1.89;89.72;99977.09;5010174;28;20040;-65
2021/12/02 05:36:53;;;;;;;2.60;1.00;;;;;;;1.83;89.62;99982.56;5008326;28;20037;-64
2021/12/02 05:39:19;;;;;;;3.38;1.10;;;;;;;1.84;89.81;99981.66;4987152;28;20420;-64
2021/12/02 05:41:45;;;;;;;5.03;1.15;;;;;;;1.86;89.95;99992.63;5008641;28;20466;-64
2021/12/02 05:44:10;;;;;;;4.45;0.90;;;;;;;1.90;88.82;99998.38;5002979;28;20559;-63
2021/12/02 05:46:36;;;;;;;6.45;1.20;;;;;;;1.88;89.31;100003.56;4992466;28;20044;-64
2021/12/02 05:49:02;;;;;;;5.40;1.10;;;;;;;1.83;89.83;100003.00;5009298;28;20022;-64
2021/12/02 05:51:27;;;;;;;3.47;0.85;;;;;;;1.86;89.60;100007.97;4989162;28;20057;-65
2021/12/02 05:53:53;;;;;;;4.55;1.00;;;;;;;1.84;89.54;100005.50;4984142;28;20053;-63
2021/12/02 05:56:18;;;;;;;3.95;0.90;;;;;;;1.83;89.56;99990.22;5003653;28;20026;-63
2021/12/02 05:58:43;;;;;;;4.18;1.10;;;;;;;1.86;90.31;99997.72;4990645;28;20034;-64
2021/12/02 06:01:09;;;;;;;4.10;0.88;;;;;;;1.81;89.84;99990.31;4999605;28;20026;-64
2021/12/02 06:03:37;;;;;;;3.83;1.10;;;;;;;1.83;89.99;99995.34;4997835;28;20492;-64
2021/12/02 06:06:06;;;;;;;2.72;0.80;;;;;;;1.82;89.83;100001.38;5003271;28;20081;-64
2021/12/02 06:08:31;;;;;;;4.20;1.00;;;;;;;1.77;90.29;99998.25;4995433;28;20486;-64
2021/12/02 06:10:57;;;;;;;4.45;0.85;;;;;;;1.70;89.88;99987.56;4993081;28;20065;-64
2021/12/02 06:13:24;;;;;;;4.43;0.85;;;;;;;1.71;89.59;99996.06;4994519;28;20393;-64
2021/12/02 06:15:50;;;;;;;5.05;0.90;;;;;;;1.69;89.53;100003.00;4987341;28;20030;-65
2021/12/02 06:18:16;;;;;;;2.60;0.80;;;;;;;1.70;89.35;99996.97;5012494;28;20032;-64
2021/12/02 06:20:41;;;;;;;3.58;0.90;;;;;;;1.67;89.38;100007.41;4994927;28;20411;-63
2021/12/02 06:23:06;;;;;;;4.13;1.00;;;;;;;1.63;89.43;100000.81;4994824;28;20287;-63
2021/12/02 06:27:57;;;;;;;5.22;1.02;;;;;;;1.60;90.15;100017.13;5004628;28;20044;-64
2021/12/02 06:30:25;;;;;;;3.33;1.10;;;;;;;1.56;89.65;100005.44;4994476;28;20105;-63
2021/12/02 06:32:51;;;;;;;2.90;0.82;;;;;;;1.56;89.88;100011.38;5003083;28;20406;-64
2021/12/02 06:35:17;;;;;;;3.95;0.80;;;;;;;1.57;89.69;100015.56;4997482;28;20034;-64
2021/12/02 06:37:45;;;;;;;4.35;1.20;;;;;;;1.57;89.59;100025.81;5000681;28;20065;-66
2021/12/02 06:40:11;;;;;;;2.60;1.30;;;;;;;1.60;90.12;100024.78;4997805;28;20038;-64
2021/12/02 06:42:36;;;;;;;3.47;1.50;;;;;;;1.57;89.87;100022.44;5001757;28;20459;-64
2021/12/02 06:45:03;;;;;;;2.13;1.30;;;;;;;1.51;89.87;100023.59;5000424;28;20072;-64
2021/12/02 06:47:34;;;;;;;5.50;1.90;;;;;;;1.56;90.13;100026.72;4988125;28;20061;-64
2021/12/02 06:50:02;;;;;;;4.85;1.65;;;;;;;1.54;90.27;100033.63;5003751;28;20069;-64
2021/12/02 06:52:29;;;;;;;4.00;1.30;;;;;;;1.56;90.20;100031.00;4994052;28;20038;-64
2021/12/02 06:54:55;;;;;;;4.32;1.10;;;;;;;1.53;90.21;100029.44;4998005;28;20481;-64
2021/12/02 06:57:21;;;;;;;4.28;1.20;;;;;;;1.55;90.58;100035.31;5005345;28;20038;-63
2021/12/02 06:59:46;;;;;;;5.05;1.30;;;;;;;1.48;90.53;100028.03;4987218;28;20053;-64
2021/12/02 07:02:12;;;;;;;4.18;1.15;;;;;;;1.55;90.15;100055.75;4998013;28;20037;-64
2021/12/02 07:04:37;;;;;;;3.30;1.10;;;;;;;1.51;90.25;100054.25;5005932;28;20025;-64
2021/12/02 07:07:03;;;;;;;4.05;0.80;;;;;;;1.53;90.67;100065.22;5006792;28;20389;-63
2021/12/02 07:09:28;;;;;;;6.13;1.20;;;;;;;1.53;90.77;100067.75;4992317;28;20447;-63
2021/12/02 07:11:54;;;;;;;4.38;1.25;;;;;;;1.52;90.74;100066.13;4992386;28;20118;-64
2021/12/02 07:14:21;;;;;;;5.10;0.90;;;;;;;1.52;90.86;100073.78;4991394;28;20069;-65
2021/12/02 07:16:46;;;;;;;5.68;1.23;;;;;;;1.50;90.90;100075.63;5005478;28;20033;-64
2021/12/02 07:19:12;;;;;;;4.57;1.00;;;;;;;1.52;90.94;100078.91;4991076;28;20026;-66
2021/12/02 07:21:40;;;;;;;5.10;1.30;;;;;;;1.48;90.30;100058.72;4997265;28;20061;-64
2021/12/02 07:24:08;;;;;;;4.55;1.08;;;;;;;1.44;90.41;100055.53;5003901;28;20022;-65
2021/12/02 07:26:35;;;;;;;5.65;1.10;;;;;;;1.43;90.14;100048.75;4996126;28;20568;-64
2021/12/02 07:29:01;;;;;;;7.10;1.65;;;;;;;1.44;89.50;100047.84;4994514;28;20037;-65
2021/12/02 07:31:29;;;;;;;4.55;1.20;;;;;;;1.41;89.92;100053.13;5002847;28;20041;-64
2021/12/02 07:33:57;;;;;;;3.80;1.15;;;;;;;1.40;89.80;100064.25;5004656;28;20041;-65
2021/12/02 07:36:23;;;;;;;6.57;1.50;;;;;;;1.33;89.63;100065.50;5002778;28;20133;-63
2021/12/02 07:38:49;;;;;;;4.47;1.33;;;;;;;1.38;89.50;100083.13;5005760;28;20108;-64
2021/12/02 07:41:15;;;;;;;7.97;1.27;;;;;;;1.36;89.70;100083.22;5002264;28;20034;-64
2021/12/02 07:43:40;;;;;;;6.05;1.60;;;;;;;1.39;89.70;100075.41;4999688;28;20026;-65
2021/12/02 07:46:06;;;;;;;9.50;1.55;;;;;;;1.39;90.07;100072.84;5000952;28;20076;-64
2021/12/02 07:48:32;;;;;;;7.15;1.73;;;;;;;1.38;90.39;100078.88;4996054;28;20493;-65
2021/12/02 07:51:01;;;;;;;6.78;1.83;;;;;;;1.43;90.46;100087.06;4990065;28;20030;-64
2021/12/02 07:53:28;;;;;;;7.35;1.58;;;;;;;1.44;90.08;100093.84;4991443;28;20030;-64
2021/12/02 07:55:55;;;;;;;7.32;1.60;;;;;;;1.43;90.11;100092.19;4994848;28;20040;-64
2021/12/02 07:58:23;;;;;;;5.72;1.55;;;;;;;1.42;90.18;100090.53;4997227;28;20435;-64
2021/12/02 08:00:50;;;;;;;8.45;1.92;;;;;;;1.43;90.14;100092.19;5003421;28;20030;-64
2021/12/02 08:03:15;;;;;;;6.13;1.55;;;;;;;1.46;90.39;100086.91;4991761;28;20026;-63
2021/12/02 08:05:42;;;;;;;6.22;1.30;;;;;;;1.42;90.06;100085.44;4992307;28;20068;-65
2021/12/02 08:08:07;;;;;;;7.53;1.45;;;;;;;1.41;89.73;100099.13;4991066;28;20036;-64
2021/12/02 08:10:33;;;;;;;5.93;1.70;;;;;;;1.38;89.52;100104.41;5000126;28;20108;-64
2021/12/02 08:13:01;;;;;;;6.72;2.00;;;;;;;1.40;89.78;100112.81;4999778;28;20034;-64
2021/12/02 08:15:28;;;;;;;4.93;1.63;;;;;;;1.36;90.26;100111.31;5010082;28;20053;-64
2021/12/02 08:17:55;;;;;;;6.68;1.80;;;;;;;1.36;89.82;100125.81;4999073;28;20397;-64
2021/12/02 08:20:23;;;;;;;4.80;1.60;;;;;;;1.37;90.04;100120.63;4994870;28;20030;-64
2021/12/02 08:22:49;;;;;;;4.38;1.60;;;;;;;1.38;90.70;100129.97;4994978;28;20034;-64
2021/12/02 08:25:15;;;;;;;6.97;1.95;;;;;;;1.39;90.03;100118.81;4986841;28;20053;-64
2021/12/02 08:27:40;;;;;;;9.00;1.88;;;;;;;1.42;90.26;100126.31;5013504;28;20030;-64
2021/12/02 08:30:08;;;;;;;6.28;1.70;;;;;;;1.45;91.04;100128.72;4997639;28;20411;-63
2021/12/02 08:32:40;;;;;;;5.15;1.90;;;;;;;1.47;90.69;100124.31;4995738;28;20482;-64
2021/12/02 08:35:05;;;;;;;7.68;1.60;;;;;;;1.48;90.58;100131.06;5006549;28;20117;-64
2021/12/02 08:37:33;;;;;;;5.75;1.60;;;;;;;1.46;90.34;100132.09;4995270;28;20120;-64
2021/12/02 08:40:00;;;;;;;5.68;1.50;;;;;;;1.56;90.45;100143.44;5001617;28;20022;-63
2021/12/02 08:42:27;;;;;;;8.10;1.80;;;;;;;1.60;90.67;100155.97;5001481;28;20077;-64
2021/12/02 08:44:54;;;;;;;5.75;1.80;;;;;;;1.64;90.95;100173.69;4990823;28;20482;-73
2021/12/02 08:47:23;;;;;;;6.55;1.60;;;;;;;1.65;90.48;100177.88;5008012;28;20054;-64
2021/12/02 08:49:53;;;;;;;6.13;1.50;;;;;;;1.67;90.13;100176.09;4994854;28;20028;-67
2021/12/02 08:52:20;;;;;;;8.80;1.73;;;;;;;1.68;90.53;100198.19;4999008;28;20076;-65
2021/12/02 08:54:46;;;;;;;8.63;2.07;;;;;;;1.68;90.23;100182.84;5007229;28;20076;-64
2021/12/02 08:57:11;;;;;;;8.40;1.80;;;;;;;1.70;91.16;100181.84;5011822;28;20475;-64
2021/12/02 08:59:37;;;;;;;8.68;1.90;;;;;;;1.75;91.14;100199.50;4999561;28;20459;-64
2021/12/02 09:02:02;;;;;;;6.53;1.73;;;;;;;1.76;90.89;100190.91;4994441;28;20034;-64
2021/12/02 09:04:28;;;;;;;6.38;1.73;;;;;;;1.77;90.37;100198.47;4994412;28;20377;-64
2021/12/02 09:06:53;;;;;;;6.38;1.60;;;;;;;1.80;90.25;100202.63;4996503;28;20474;-64
2021/12/02 09:09:19;;;;;;;6.88;1.50;;;;;;;1.78;89.88;100207.00;4994301;28;20030;-64
2021/12/02 09:11:44;;;;;;;6.28;1.65;;;;;;;1.76;90.38;100217.28;4999172;28;20034;-65
2021/12/02 09:14:09;;;;;;;7.97;1.60;;;;;;;1.75;90.13;100218.22;5005470;28;20030;-64
2021/12/02 09:16:36;;;;;;;7.10;1.50;;;;;;;1.72;89.89;100210.72;4994255;28;20037;-65
2021/12/02 09:19:02;;;;;;;7.30;1.58;;;;;;;1.72;90.69;100213.28;4989489;28;20025;-64
2021/12/02 09:21:28;;;;;;;8.13;1.63;;;;;;;1.75;90.24;100219.94;4986412;28;20050;-65
2021/12/02 09:23:53;;;;;;;9.48;1.88;;;;;;;1.76;90.25;100224.13;5004097;28;20042;-64
2021/12/02 09:26:19;;;;;;;7.00;1.52;;;;;;;1.74;90.26;100224.22;5008296;28;20104;-64
2021/12/02 09:28:52;;;;;;;6.88;1.83;;;;;;;1.80;90.64;100228.19;5005680;28;20038;-64
2021/12/02 09:31:17;;;;;;;7.53;1.98;;;;;;;1.87;90.86;100232.06;4993811;28;20037;-64
2021/12/02 09:33:43;;;;;;;7.15;1.95;;;;;;;1.89;90.74;100225.09;5000737;28;20030;-64
2021/12/02 09:36:08;;;;;;;7.22;2.22;;;;;;;1.91;91.04;100233.53;5005683;28;20034;-65
2021/12/02 09:38:33;;;;;;;8.73;2.10;;;;;;;1.95;90.63;100235.03;4998765;28;20124;-64
2021/12/02 09:41:02;;;;;;;6.63;2.05;;;;;;;1.93;90.13;100229.16;4996858;28;20105;-65
2021/12/02 09:43:27;;;;;;;7.63;2.70;;;;;;;1.98;90.54;100224.59;5006365;28;20085;-64
2021/12/02 09:45:52;;;;;;;8.52;2.30;;;;;;;1.96;90.28;100226.44;5007751;28;20033;-64
2021/12/02 09:48:18;;;;;;;8.45;2.45;;;;;;;2.00;90.72;100235.56;4999497;28;20061;-64
2021/12/02 09:50:51;;;;;;;6.53;2.20;;;;;;;2.01;90.39;100237.25;5007660;28;20466;-64
2021/12/02 09:53:20;;;;;;;6.80;2.17;;;;;;;2.06;90.76;100231.84;5006328;28;20034;-65
2021/12/02 09:55:53;;;;;;;7.43;2.33;;;;;;;2.08;91.03;100228.31;5003416;28;20034;-66
2021/12/02 09:58:27;;;;;;;8.18;2.20;;;;;;;2.10;90.48;100226.47;4994607;28;20089;-64
2021/12/02 10:03:25;;;;;;;6.85;2.20;;;;;;;2.16;90.82;100229.59;5002541;28;20109;-64
2021/12/02 10:06:00;;;;;;;9.07;2.50;;;;;;;2.22;91.38;100239.50;4993269;28;20418;-64
2021/12/02 10:08:31;;;;;;;7.25;2.30;;;;;;;2.20;90.21;100236.22;4994137;28;20489;-64
2021/12/02 10:11:00;;;;;;;5.03;1.90;;;;;;;2.19;89.24;100244.81;4996105;28;20471;-64
2021/12/02 10:13:30;;;;;;;;;;;;;;;2.32;89.45;100250.88;5000062;28;20030;-64
2021/12/02 10:16:04;;;;;;;5.75;2.10;;;;;;;2.28;89.56;100244.25;4997866;28;19975;-64
2021/12/02 10:19:03;;;;;;;7.85;2.88;;;;;;;2.31;88.98;100244.94;5002146;28;20499;-64
2021/12/02 10:21:38;;;;;;;8.10;2.35;;;;;;;2.28;89.02;100259.63;5001293;28;20054;-64
2021/12/02 10:24:07;;;;;;;6.78;2.50;;;;;;;2.29;88.99;100261.25;5000439;28;20022;-64
2021/12/02 10:26:39;;;;;;;7.15;2.97;;;;;;;2.33;89.35;100257.63;4995238;28;20034;-64
2021/12/02 10:29:15;;;;;;;7.45;2.33;;;;;;;2.34;89.05;100259.28;5001243;28;20373;-65
2021/12/02 10:31:46;;;;;;;7.03;2.13;;;;;;;2.39;88.90;100267.50;4994584;28;20038;-63
2021/12/02 10:34:12;;;;;;;3.85;1.95;;;;;;;2.38;88.25;100260.75;4993551;28;20474;-64
2021/12/02 10:36:43;;;;;;;4.78;1.58;;;;;;;2.41;88.79;100265.72;4993973;28;20030;-65
2021/12/02 10:39:16;;;;;;;5.03;1.40;;;;;;;2.40;88.46;100251.25;5009128;28;20026;-64
2021/12/02 10:41:44;;;;;;;3.58;1.10;;;;;;;2.48;88.54;100261.06;5006165;28;20028;-64
2021/12/02 10:44:09;;;;;;;3.35;1.20;;;;;;;2.52;88.64;100268.47;5011806;28;20026;-63
2021/12/02 10:46:37;;;;;;;4.43;1.40;;;;;;;2.57;88.19;100278.44;4994034;28;20048;-64
2021/12/02 10:49:04;;;;;;;2.70;1.42;;;;;;;2.62;87.93;100272.16;5009521;28;20024;-64
2021/12/02 10:51:52;;;;;;;4.30;1.30;;;;;;;2.71;88.42;100278.50;4993721;28;20172;-64
2021/12/02 10:54:22;;;;;;;4.75;1.40;;;;;;;2.81;88.77;100289.00;4998554;28;20427;-65
2021/12/02 10:56:53;;;;;;;3.22;1.20;;;;;;;2.82;87.92;100280.44;5008271;28;20045;-66
2021/12/02 10:59:39;;;;;;;2.17;0.90;;;;;;;2.79;87.43;100280.59;5008371;28;20030;-65
2021/12/02 11:02:06;;;;;;;4.07;1.00;;;;;;;2.73;87.14;100275.81;4991470;28;20118;-66
2021/12/02 11:04:41;;;;;;;2.60;0.88;;;;;;;2.69;86.76;100274.34;4991882;28;20091;-64
2021/12/02 11:07:11;;;;;;;4.13;1.00;;;;;;;2.65;87.19;100284.78;4991652;28;20463;-64
2021/12/02 11:09:39;;;;;;;2.50;0.80;;;;;;;2.65;87.12;100284.78;4991201;28;20026;-65
2021/12/02 11:12:20;;;;;;;2.20;0.90;;;;;;;2.62;86.99;100284.13;4994200;28;20054;-64
2021/12/02 11:14:54;;;;;;;4.40;1.00;;;;;;;2.63;86.93;100299.38;4984520;28;20030;-66
2021/12/02 11:17:21;;;;;;;1.98;0.90;;;;;;;2.64;86.92;100297.69;5001466;28;20029;-64
2021/12/02 11:19:50;;;;;;;4.28;1.00;;;;;;;2.65;87.19;100299.31;4992560;28;20054;-64
2021/12/02 11:22:16;;;;;;;;;;;;;;;2.80;87.53;100307.84;5007081;28;20056;-65
2021/12/02 11:24:45;;;;;;;3.33;1.10;;;;;;;2.79;87.40;100303.66;4993016;28;20008;-64
2021/12/02 11:27:36;;;;;;;4.50;1.20;;;;;;;2.92;87.57;100297.75;5002864;28;20104;-64
2021/12/02 11:30:10;;;;;;;3.35;1.20;;;;;;;2.95;86.56;100301.84;4981989;28;20030;-64
2021/12/02 11:32:42;;;;;;;2.60;1.00;;;;;;;3.07;86.26;100313.94;5009567;28;20045;-64
2021/12/02 11:35:12;;;;;;;3.95;1.00;;;;;;;3.10;86.11;100306.09;4990370;28;20022;-65
2021/12/02 11:37:41;;;;;;;2.75;0.90;;;;;;;3.13;86.54;100305.88;4992532;28;20091;-64
2021/12/02 11:40:20;;;;;;;3.53;1.73;;;;;;;3.13;85.98;100294.81;5009249;28;20018;-64
2021/12/02 11:42:48;;;;;;;3.90;1.60;;;;;;;3.07;85.88;100290.88;5003455;28;20034;-64
2021/12/02 11:45:16;;;;;;;4.25;1.70;;;;;;;3.02;85.73;100287.75;5009341;28;20575;-64
2021/12/02 11:47:41;;;;;;;2.93;1.10;;;;;;;2.94;86.08;100289.97;5005139;28;20029;-65
2021/12/02 11:50:09;;;;;;;1.55;0.73;;;;;;;2.88;85.46;100280.06;5002053;28;20067;-64
2021/12/02 11:52:37;;;;;;;1.63;0.80;;;;;;;2.86;86.14;100281.88;5003811;28;20018;-65
2021/12/02 11:55:05;;;;;;;2.90;0.70;;;;;;;2.78;86.49;100296.88;4986281;28;20116;-64
2021/12/02 11:57:33;;;;;;;0.82;0.60;;;;;;;2.79;85.84;100301.09;4999269;28;20022;-64
2021/12/02 11:59:58;;;;;;;2.25;0.80;;;;;;;2.71;85.87;100303.28;4997366;28;20038;-64
2021/12/02 12:02:24;;;;;;;1.70;0.68;;;;;;;2.72;86.69;100302.34;5002464;28;20031;-64
2021/12/02 12:05:01;;;;;;;1.55;0.80;;;;;;;2.71;86.10;100310.94;4991317;28;20274;-65
2021/12/02 12:07:39;;;;;;;3.67;1.02;;;;;;;2.71;86.51;100314.34;4987529;28;20014;-64
2021/12/02 12:10:23;;;;;;;1.25;0.90;;;;;;;2.72;86.41;100320.28;4990784;28;20047;-63
2021/12/02 12:13:13;;;;;;;2.28;1.10;;;;;;;2.66;86.65;100312.03;4983485;28;20030;-65
2021/12/02 12:15:44;;;;;;;3.10;1.50;;;;;;;2.65;87.34;100323.19;5004112;28;20038;-65
2021/12/02 12:18:18;;;;;;;4.15;1.50;;;;;;;2.63;86.84;100337.78;5004969;28;20485;-64
2021/12/02 12:21:05;;;;;;;3.45;1.40;;;;;;;2.67;87.19;100339.28;5005794;28;20042;-64
2021/12/02 12:23:37;;;;;;;4.35;1.52;;;;;;;2.62;86.67;100341.28;4991159;28;20076;-64
2021/12/02 12:26:34;;;;;;;3.92;1.48;;;;;;;2.63;87.65;100348.03;4995593;28;20026;-64
2021/12/02 12:29:09;;;;;;;3.55;1.40;;;;;;;2.65;87.02;100356.47;5001546;28;20032;-64
2021/12/02 12:31:53;;;;;;;4.97;1.48;;;;;;;2.66;87.49;100360.69;5003958;28;20026;-63
2021/12/02 12:34:31;;;;;;;3.13;1.55;;;;;;;2.70;86.92;100347.72;5000867;28;20040;-65
2021/12/02 12:36:59;;;;;;;3.38;1.42;;;;;;;2.66;86.75;100345.31;4992239;28;20026;-65
2021/12/02 12:39:31;;;;;;;2.63;1.40;;;;;;;2.66;86.84;100350.44;5004181;28;20069;-64
2021/12/02 12:42:22;;;;;;;3.28;1.20;;;;;;;2.73;87.18;100352.66;4978450;28;20026;-64
2021/12/02 12:44:57;;;;;;;4.93;1.50;;;;;;;2.70;87.67;100343.41;4988160;28;20129;-64
2021/12/02 12:47:54;;;;;;;4.82;1.27;;;;;;;2.75;87.54;100345.69;4990594;28;20026;-64
2021/12/02 12:50:38;;;;;;;3.30;1.13;;;;;;;2.69;87.24;100357.09;4987135;28;20046;-65
2021/12/02 12:53:04;;;;;;;3.45;1.20;;;;;;;2.68;86.81;100365.69;4993706;28;20064;-64
2021/12/02 12:55:52;;;;;;;2.28;1.10;;;;;;;2.73;87.37;100375.69;5005111;28;20029;-64
2021/12/02 12:58:20;;;;;;;2.70;1.10;;;;;;;2.69;86.67;100384.44;4984587;28;20069;-64